sensor_id;sensor_type;location;lat;lon;timestamp;P1;durP1;ratioP1;P2;durP2;ratioP2
54261;SDS011;40174;52.364;6.452;2023-10-08T00:02:23;12.85;;;2.88;;
54261;SDS011;40174;52.364;6.452;2023-10-08T00:04:51;9.07;;;2.90;;
54261;SDS011;40174;52.364;6.452;2023-10-08T00:07:19;9.43;;;2.22;;
54261;SDS011;40174;52.364;6.452;2023-10-08T00:09:50;7.00;;;2.35;;
54261;SDS011;40174;52.364;6.452;2023-10-08T00:12:18;15.70;;;2.83;;
54261;SDS011;40174;52.364;6.452;2023-10-08T00:14:44;7.07;;;2.10;;
54261;SDS011;40174;52.364;6.452;2023-10-08T00:17:14;12.63;;;3.03;;
54261;SDS011;40174;52.364;6.452;2023-10-08T00:19:43;11.15;;;2.15;;
54261;SDS011;40174;52.364;6.452;2023-10-08T00:22:10;11.30;;;2.30;;
54261;SDS011;40174;52.364;6.452;2023-10-08T00:24:38;13.63;;;3.47;;
54261;SDS011;40174;52.364;6.452;2023-10-08T00:27:07;12.85;;;2.25;;
54261;SDS011;40174;52.364;6.452;2023-10-08T00:29:35;11.10;;;3.33;;
54261;SDS011;40174;52.364;6.452;2023-10-08T00:32:08;11.00;;;3.38;;
54261;SDS011;40174;52.364;6.452;2023-10-08T00:34:45;11.23;;;2.97;;
54261;SDS011;40174;52.364;6.452;2023-10-08T00:37:11;13.48;;;3.55;;
54261;SDS011;40174;52.364;6.452;2023-10-08T00:39:40;11.45;;;3.22;;
54261;SDS011;40174;52.364;6.452;2023-10-08T00:42:07;9.63;;;2.47;;
54261;SDS011;40174;52.364;6.452;2023-10-08T00:44:34;10.88;;;3.63;;
54261;SDS011;40174;52.364;6.452;2023-10-08T00:47:06;12.18;;;3.42;;
54261;SDS011;40174;52.364;6.452;2023-10-08T00:49:36;8.48;;;2.47;;
54261;SDS011;40174;52.364;6.452;2023-10-08T00:52:21;13.60;;;2.95;;
54261;SDS011;40174;52.364;6.452;2023-10-08T00:55:03;16.08;;;3.40;;
54261;SDS011;40174;52.364;6.452;2023-10-08T00:57:40;11.75;;;3.50;;
54261;SDS011;40174;52.364;6.452;2023-10-08T01:00:09;8.23;;;2.78;;
54261;SDS011;40174;52.364;6.452;2023-10-08T01:02:46;9.32;;;2.97;;
54261;SDS011;40174;52.364;6.452;2023-10-08T01:05:20;9.15;;;3.17;;
54261;SDS011;40174;52.364;6.452;2023-10-08T01:07:52;13.05;;;3.13;;
54261;SDS011;40174;52.364;6.452;2023-10-08T01:10:21;9.52;;;2.38;;
54261;SDS011;40174;52.364;6.452;2023-10-08T01:12:50;10.23;;;2.95;;
54261;SDS011;40174;52.364;6.452;2023-10-08T01:15:41;10.95;;;2.53;;
54261;SDS011;40174;52.364;6.452;2023-10-08T01:18:10;9.73;;;3.05;;
54261;SDS011;40174;52.364;6.452;2023-10-08T01:20:42;15.27;;;4.05;;
54261;SDS011;40174;52.364;6.452;2023-10-08T01:23:18;9.95;;;2.58;;
54261;SDS011;40174;52.364;6.452;2023-10-08T01:25:48;9.23;;;2.90;;
54261;SDS011;40174;52.364;6.452;2023-10-08T01:28:17;7.63;;;2.58;;
54261;SDS011;40174;52.364;6.452;2023-10-08T01:30:50;14.07;;;3.83;;
54261;SDS011;40174;52.364;6.452;2023-10-08T01:33:19;8.25;;;3.67;;
54261;SDS011;40174;52.364;6.452;2023-10-08T01:36:01;4.97;;;1.45;;
54261;SDS011;40174;52.364;6.452;2023-10-08T01:38:34;3.05;;;1.10;;
54261;SDS011;40174;52.364;6.452;2023-10-08T01:41:01;3.83;;;0.88;;
54261;SDS011;40174;52.364;6.452;2023-10-08T01:43:30;4.45;;;0.93;;
54261;SDS011;40174;52.364;6.452;2023-10-08T01:45:57;1.52;;;0.30;;
54261;SDS011;40174;52.364;6.452;2023-10-08T01:48:24;2.10;;;0.82;;
54261;SDS011;40174;52.364;6.452;2023-10-08T01:50:54;0.77;;;0.47;;
54261;SDS011;40174;52.364;6.452;2023-10-08T01:53:21;1.25;;;0.57;;
54261;SDS011;40174;52.364;6.452;2023-10-08T01:55:49;2.63;;;0.68;;
54261;SDS011;40174;52.364;6.452;2023-10-08T01:58:17;1.15;;;0.50;;
54261;SDS011;40174;52.364;6.452;2023-10-08T02:00:45;1.75;;;0.50;;
54261;SDS011;40174;52.364;6.452;2023-10-08T02:03:14;2.20;;;0.70;;
54261;SDS011;40174;52.364;6.452;2023-10-08T02:05:43;0.35;;;0.30;;
54261;SDS011;40174;52.364;6.452;2023-10-08T02:08:10;0.50;;;0.40;;
54261;SDS011;40174;52.364;6.452;2023-10-08T02:10:38;0.47;;;0.30;;
54261;SDS011;40174;52.364;6.452;2023-10-08T02:13:07;1.00;;;0.50;;
54261;SDS011;40174;52.364;6.452;2023-10-08T02:15:35;0.68;;;0.30;;
54261;SDS011;40174;52.364;6.452;2023-10-08T02:18:04;1.20;;;0.30;;
54261;SDS011;40174;52.364;6.452;2023-10-08T02:20:32;2.88;;;0.70;;
54261;SDS011;40174;52.364;6.452;2023-10-08T02:22:59;0.98;;;0.57;;
54261;SDS011;40174;52.364;6.452;2023-10-08T02:25:26;1.27;;;0.50;;
54261;SDS011;40174;52.364;6.452;2023-10-08T02:27:53;2.60;;;0.50;;
54261;SDS011;40174;52.364;6.452;2023-10-08T02:30:21;1.15;;;0.57;;
54261;SDS011;40174;52.364;6.452;2023-10-08T02:32:47;1.38;;;0.60;;
54261;SDS011;40174;52.364;6.452;2023-10-08T02:35:15;2.15;;;0.77;;
54261;SDS011;40174;52.364;6.452;2023-10-08T02:37:41;3.00;;;0.60;;
54261;SDS011;40174;52.364;6.452;2023-10-08T02:40:11;2.42;;;0.80;;
54261;SDS011;40174;52.364;6.452;2023-10-08T02:42:44;1.92;;;0.80;;
54261;SDS011;40174;52.364;6.452;2023-10-08T02:45:13;3.38;;;1.05;;
54261;SDS011;40174;52.364;6.452;2023-10-08T02:47:43;4.72;;;1.23;;
54261;SDS011;40174;52.364;6.452;2023-10-08T02:50:11;2.58;;;1.38;;
54261;SDS011;40174;52.364;6.452;2023-10-08T02:52:42;2.65;;;1.02;;
54261;SDS011;40174;52.364;6.452;2023-10-08T02:55:11;2.13;;;0.98;;
54261;SDS011;40174;52.364;6.452;2023-10-08T02:57:49;5.85;;;1.30;;
54261;SDS011;40174;52.364;6.452;2023-10-08T03:00:19;2.80;;;1.20;;
54261;SDS011;40174;52.364;6.452;2023-10-08T03:02:48;5.30;;;1.48;;
54261;SDS011;40174;52.364;6.452;2023-10-08T03:05:17;5.05;;;1.27;;
54261;SDS011;40174;52.364;6.452;2023-10-08T03:07:45;3.38;;;1.50;;
54261;SDS011;40174;52.364;6.452;2023-10-08T03:10:16;3.53;;;1.30;;
54261;SDS011;40174;52.364;6.452;2023-10-08T03:12:44;3.00;;;1.17;;
54261;SDS011;40174;52.364;6.452;2023-10-08T03:15:12;2.83;;;1.17;;
54261;SDS011;40174;52.364;6.452;2023-10-08T03:17:55;2.42;;;1.17;;
54261;SDS011;40174;52.364;6.452;2023-10-08T03:20:34;2.70;;;0.93;;
54261;SDS011;40174;52.364;6.452;2023-10-08T03:23:07;3.08;;;1.20;;
54261;SDS011;40174;52.364;6.452;2023-10-08T03:25:50;2.83;;;1.02;;
54261;SDS011;40174;52.364;6.452;2023-10-08T03:28:22;3.50;;;1.15;;
54261;SDS011;40174;52.364;6.452;2023-10-08T03:30:51;5.60;;;1.35;;
54261;SDS011;40174;52.364;6.452;2023-10-08T03:33:29;3.13;;;1.10;;
54261;SDS011;40174;52.364;6.452;2023-10-08T03:36:00;2.83;;;1.10;;
54261;SDS011;40174;52.364;6.452;2023-10-08T03:38:34;2.92;;;1.33;;
54261;SDS011;40174;52.364;6.452;2023-10-08T03:41:15;3.40;;;0.90;;
54261;SDS011;40174;52.364;6.452;2023-10-08T03:43:45;3.00;;;1.17;;
54261;SDS011;40174;52.364;6.452;2023-10-08T03:46:19;3.10;;;0.95;;
54261;SDS011;40174;52.364;6.452;2023-10-08T03:48:48;3.20;;;1.08;;
54261;SDS011;40174;52.364;6.452;2023-10-08T03:51:16;2.58;;;1.05;;
54261;SDS011;40174;52.364;6.452;2023-10-08T03:53:46;2.92;;;1.05;;
54261;SDS011;40174;52.364;6.452;2023-10-08T03:56:24;2.28;;;0.85;;
54261;SDS011;40174;52.364;6.452;2023-10-08T03:58:55;2.72;;;0.88;;
54261;SDS011;40174;52.364;6.452;2023-10-08T04:01:25;3.67;;;0.98;;
54261;SDS011;40174;52.364;6.452;2023-10-08T04:03:58;2.33;;;0.80;;
54261;SDS011;40174;52.364;6.452;2023-10-08T04:06:26;4.32;;;1.10;;
54261;SDS011;40174;52.364;6.452;2023-10-08T04:09:03;3.58;;;1.25;;
54261;SDS011;40174;52.364;6.452;2023-10-08T04:11:49;7.95;;;1.60;;
54261;SDS011;40174;52.364;6.452;2023-10-08T04:14:19;3.40;;;1.17;;
54261;SDS011;40174;52.364;6.452;2023-10-08T04:16:46;4.18;;;1.10;;
54261;SDS011;40174;52.364;6.452;2023-10-08T04:19:18;3.63;;;1.10;;
54261;SDS011;40174;52.364;6.452;2023-10-08T04:21:46;3.75;;;1.33;;
54261;SDS011;40174;52.364;6.452;2023-10-08T04:24:20;4.40;;;1.27;;
54261;SDS011;40174;52.364;6.452;2023-10-08T04:26:54;4.50;;;1.40;;
54261;SDS011;40174;52.364;6.452;2023-10-08T04:29:25;2.90;;;1.40;;
54261;SDS011;40174;52.364;6.452;2023-10-08T04:31:57;4.07;;;1.60;;
54261;SDS011;40174;52.364;6.452;2023-10-08T04:34:34;3.55;;;1.38;;
54261;SDS011;40174;52.364;6.452;2023-10-08T04:37:01;3.92;;;1.25;;
54261;SDS011;40174;52.364;6.452;2023-10-08T04:39:35;6.25;;;1.65;;
54261;SDS011;40174;52.364;6.452;2023-10-08T04:42:04;2.72;;;1.10;;
54261;SDS011;40174;52.364;6.452;2023-10-08T04:44:36;3.58;;;1.25;;
54261;SDS011;40174;52.364;6.452;2023-10-08T04:47:06;4.25;;;1.48;;
54261;SDS011;40174;52.364;6.452;2023-10-08T04:49:36;3.35;;;1.23;;
54261;SDS011;40174;52.364;6.452;2023-10-08T04:52:10;4.72;;;1.40;;
54261;SDS011;40174;52.364;6.452;2023-10-08T04:54:40;4.53;;;1.58;;
54261;SDS011;40174;52.364;6.452;2023-10-08T04:57:16;4.30;;;1.40;;
54261;SDS011;40174;52.364;6.452;2023-10-08T04:59:43;3.75;;;1.25;;
54261;SDS011;40174;52.364;6.452;2023-10-08T05:02:12;2.75;;;1.20;;
54261;SDS011;40174;52.364;6.452;2023-10-08T05:04:45;4.20;;;1.67;;
54261;SDS011;40174;52.364;6.452;2023-10-08T05:07:22;3.17;;;1.20;;
54261;SDS011;40174;52.364;6.452;2023-10-08T05:10:06;5.10;;;1.50;;
54261;SDS011;40174;52.364;6.452;2023-10-08T05:12:57;4.15;;;1.40;;
54261;SDS011;40174;52.364;6.452;2023-10-08T05:15:40;3.70;;;1.70;;
54261;SDS011;40174;52.364;6.452;2023-10-08T05:18:07;6.07;;;1.70;;
54261;SDS011;40174;52.364;6.452;2023-10-08T05:20:50;5.90;;;2.05;;
54261;SDS011;40174;52.364;6.452;2023-10-08T05:23:27;5.05;;;1.77;;
54261;SDS011;40174;52.364;6.452;2023-10-08T05:26:18;4.28;;;1.50;;
54261;SDS011;40174;52.364;6.452;2023-10-08T05:28:56;4.88;;;2.00;;
54261;SDS011;40174;52.364;6.452;2023-10-08T05:31:49;5.72;;;1.70;;
54261;SDS011;40174;52.364;6.452;2023-10-08T05:34:36;9.52;;;1.58;;
54261;SDS011;40174;52.364;6.452;2023-10-08T05:37:17;5.03;;;1.60;;
54261;SDS011;40174;52.364;6.452;2023-10-08T05:39:58;4.65;;;1.67;;
54261;SDS011;40174;52.364;6.452;2023-10-08T05:42:38;4.15;;;1.48;;
54261;SDS011;40174;52.364;6.452;2023-10-08T05:45:12;5.28;;;1.63;;
54261;SDS011;40174;52.364;6.452;2023-10-08T05:47:54;3.90;;;1.45;;
54261;SDS011;40174;52.364;6.452;2023-10-08T05:50:34;5.72;;;1.95;;
54261;SDS011;40174;52.364;6.452;2023-10-08T05:53:23;5.95;;;1.75;;
54261;SDS011;40174;52.364;6.452;2023-10-08T05:56:08;6.10;;;2.05;;
54261;SDS011;40174;52.364;6.452;2023-10-08T05:58:53;4.22;;;1.63;;
54261;SDS011;40174;52.364;6.452;2023-10-08T06:01:40;4.82;;;1.65;;
54261;SDS011;40174;52.364;6.452;2023-10-08T06:04:07;5.10;;;1.73;;
54261;SDS011;40174;52.364;6.452;2023-10-08T06:07:07;7.50;;;2.30;;
54261;SDS011;40174;52.364;6.452;2023-10-08T06:12:26;7.15;;;2.05;;
54261;SDS011;40174;52.364;6.452;2023-10-08T06:14:56;3.58;;;1.45;;
54261;SDS011;40174;52.364;6.452;2023-10-08T06:17:37;4.38;;;1.40;;
54261;SDS011;40174;52.364;6.452;2023-10-08T06:20:23;5.78;;;1.60;;
54261;SDS011;40174;52.364;6.452;2023-10-08T06:22:52;8.45;;;1.63;;
54261;SDS011;40174;52.364;6.452;2023-10-08T06:25:27;5.85;;;1.80;;
54261;SDS011;40174;52.364;6.452;2023-10-08T06:27:53;7.90;;;2.17;;
54261;SDS011;40174;52.364;6.452;2023-10-08T06:30:23;5.82;;;1.90;;
54261;SDS011;40174;52.364;6.452;2023-10-08T06:32:50;5.85;;;1.67;;
54261;SDS011;40174;52.364;6.452;2023-10-08T06:35:19;4.20;;;1.35;;
54261;SDS011;40174;52.364;6.452;2023-10-08T06:37:50;4.85;;;1.27;;
54261;SDS011;40174;52.364;6.452;2023-10-08T06:40:20;4.63;;;1.77;;
54261;SDS011;40174;52.364;6.452;2023-10-08T06:43:05;5.07;;;1.30;;
54261;SDS011;40174;52.364;6.452;2023-10-08T06:45:40;5.70;;;1.75;;
54261;SDS011;40174;52.364;6.452;2023-10-08T06:48:07;4.93;;;1.60;;
54261;SDS011;40174;52.364;6.452;2023-10-08T06:50:34;5.57;;;2.13;;
54261;SDS011;40174;52.364;6.452;2023-10-08T06:53:02;5.95;;;2.13;;
54261;SDS011;40174;52.364;6.452;2023-10-08T06:55:32;5.10;;;1.50;;
54261;SDS011;40174;52.364;6.452;2023-10-08T06:58:01;4.43;;;1.38;;
54261;SDS011;40174;52.364;6.452;2023-10-08T07:00:33;6.85;;;2.25;;
54261;SDS011;40174;52.364;6.452;2023-10-08T07:03:08;4.45;;;1.70;;
54261;SDS011;40174;52.364;6.452;2023-10-08T07:05:37;6.07;;;1.60;;
54261;SDS011;40174;52.364;6.452;2023-10-08T07:08:06;6.85;;;1.80;;
54261;SDS011;40174;52.364;6.452;2023-10-08T07:10:34;6.57;;;2.30;;
54261;SDS011;40174;52.364;6.452;2023-10-08T07:13:01;5.95;;;1.90;;
54261;SDS011;40174;52.364;6.452;2023-10-08T07:15:29;5.75;;;1.92;;
54261;SDS011;40174;52.364;6.452;2023-10-08T07:17:58;5.18;;;1.77;;
54261;SDS011;40174;52.364;6.452;2023-10-08T07:20:35;5.57;;;1.52;;
54261;SDS011;40174;52.364;6.452;2023-10-08T07:23:05;4.05;;;1.67;;
54261;SDS011;40174;52.364;6.452;2023-10-08T07:25:37;7.03;;;1.83;;
54261;SDS011;40174;52.364;6.452;2023-10-08T07:28:04;5.22;;;1.88;;
54261;SDS011;40174;52.364;6.452;2023-10-08T07:30:36;4.47;;;1.75;;
54261;SDS011;40174;52.364;6.452;2023-10-08T07:33:06;5.90;;;1.73;;
54261;SDS011;40174;52.364;6.452;2023-10-08T07:35:36;5.97;;;1.80;;
54261;SDS011;40174;52.364;6.452;2023-10-08T07:38:04;5.70;;;1.95;;
54261;SDS011;40174;52.364;6.452;2023-10-08T07:40:35;3.90;;;1.60;;
54261;SDS011;40174;52.364;6.452;2023-10-08T07:43:02;7.53;;;1.83;;
54261;SDS011;40174;52.364;6.452;2023-10-08T07:45:33;4.88;;;1.50;;
54261;SDS011;40174;52.364;6.452;2023-10-08T07:48:01;4.85;;;1.63;;
54261;SDS011;40174;52.364;6.452;2023-10-08T07:50:32;3.28;;;1.20;;
54261;SDS011;40174;52.364;6.452;2023-10-08T07:52:59;9.32;;;1.70;;
54261;SDS011;40174;52.364;6.452;2023-10-08T07:55:29;5.85;;;1.42;;
54261;SDS011;40174;52.364;6.452;2023-10-08T07:57:57;6.93;;;1.17;;
54261;SDS011;40174;52.364;6.452;2023-10-08T08:00:24;2.92;;;1.08;;
54261;SDS011;40174;52.364;6.452;2023-10-08T08:02:55;4.40;;;1.10;;
54261;SDS011;40174;52.364;6.452;2023-10-08T08:05:23;7.05;;;1.27;;
54261;SDS011;40174;52.364;6.452;2023-10-08T08:07:51;6.13;;;1.15;;
54261;SDS011;40174;52.364;6.452;2023-10-08T08:10:19;3.80;;;1.05;;
54261;SDS011;40174;52.364;6.452;2023-10-08T08:12:48;3.25;;;0.90;;
54261;SDS011;40174;52.364;6.452;2023-10-08T08:15:16;4.25;;;1.00;;
54261;SDS011;40174;52.364;6.452;2023-10-08T08:17:44;5.63;;;1.35;;
54261;SDS011;40174;52.364;6.452;2023-10-08T08:20:13;4.05;;;1.23;;
54261;SDS011;40174;52.364;6.452;2023-10-08T08:22:48;4.63;;;1.02;;
54261;SDS011;40174;52.364;6.452;2023-10-08T08:25:20;3.58;;;0.90;;
54261;SDS011;40174;52.364;6.452;2023-10-08T08:27:59;5.07;;;1.35;;
54261;SDS011;40174;52.364;6.452;2023-10-08T08:30:25;3.95;;;1.05;;
54261;SDS011;40174;52.364;6.452;2023-10-08T08:32:52;4.38;;;0.70;;
54261;SDS011;40174;52.364;6.452;2023-10-08T08:35:21;2.50;;;0.60;;
54261;SDS011;40174;52.364;6.452;2023-10-08T08:37:49;4.57;;;0.93;;
54261;SDS011;40174;52.364;6.452;2023-10-08T08:40:17;1.77;;;0.60;;
54261;SDS011;40174;52.364;6.452;2023-10-08T08:42:46;2.65;;;1.17;;
54261;SDS011;40174;52.364;6.452;2023-10-08T08:45:15;3.80;;;1.05;;
54261;SDS011;40174;52.364;6.452;2023-10-08T08:47:45;2.72;;;0.98;;
54261;SDS011;40174;52.364;6.452;2023-10-08T08:50:12;2.08;;;0.70;;
54261;SDS011;40174;52.364;6.452;2023-10-08T08:52:39;2.45;;;1.08;;
54261;SDS011;40174;52.364;6.452;2023-10-08T08:55:07;2.00;;;0.70;;
54261;SDS011;40174;52.364;6.452;2023-10-08T08:57:39;3.97;;;0.60;;
54261;SDS011;40174;52.364;6.452;2023-10-08T09:00:10;1.00;;;0.50;;
54261;SDS011;40174;52.364;6.452;2023-10-08T09:02:39;2.30;;;0.60;;
54261;SDS011;40174;52.364;6.452;2023-10-08T09:05:06;2.65;;;0.98;;
54261;SDS011;40174;52.364;6.452;2023-10-08T09:07:52;2.72;;;0.60;;
54261;SDS011;40174;52.364;6.452;2023-10-08T09:10:23;1.92;;;0.65;;
54261;SDS011;40174;52.364;6.452;2023-10-08T09:12:52;3.20;;;0.75;;
54261;SDS011;40174;52.364;6.452;2023-10-08T09:15:20;2.78;;;0.50;;
54261;SDS011;40174;52.364;6.452;2023-10-08T09:17:48;2.17;;;0.55;;
54261;SDS011;40174;52.364;6.452;2023-10-08T09:20:14;2.13;;;0.60;;
54261;SDS011;40174;52.364;6.452;2023-10-08T09:22:42;5.22;;;0.45;;
54261;SDS011;40174;52.364;6.452;2023-10-08T09:25:09;4.85;;;0.70;;
54261;SDS011;40174;52.364;6.452;2023-10-08T09:27:39;2.78;;;0.90;;
54261;SDS011;40174;52.364;6.452;2023-10-08T09:30:12;3.20;;;0.57;;
54261;SDS011;40174;52.364;6.452;2023-10-08T09:32:45;3.85;;;0.80;;
54261;SDS011;40174;52.364;6.452;2023-10-08T09:35:15;2.70;;;0.70;;
54261;SDS011;40174;52.364;6.452;2023-10-08T09:37:42;0.47;;;0.32;;
54261;SDS011;40174;52.364;6.452;2023-10-08T09:40:11;1.20;;;0.60;;
54261;SDS011;40174;52.364;6.452;2023-10-08T09:42:38;2.20;;;0.55;;
54261;SDS011;40174;52.364;6.452;2023-10-08T09:45:05;1.90;;;0.47;;
54261;SDS011;40174;52.364;6.452;2023-10-08T09:47:34;3.00;;;0.50;;
54261;SDS011;40174;52.364;6.452;2023-10-08T09:50:07;1.85;;;0.50;;
54261;SDS011;40174;52.364;6.452;2023-10-08T09:52:40;1.65;;;0.45;;
54261;SDS011;40174;52.364;6.452;2023-10-08T09:55:12;1.10;;;0.55;;
54261;SDS011;40174;52.364;6.452;2023-10-08T09:57:43;3.28;;;0.73;;
54261;SDS011;40174;52.364;6.452;2023-10-08T10:00:11;3.03;;;0.73;;
54261;SDS011;40174;52.364;6.452;2023-10-08T10:02:43;6.32;;;0.73;;
54261;SDS011;40174;52.364;6.452;2023-10-08T10:05:12;3.38;;;0.68;;
54261;SDS011;40174;52.364;6.452;2023-10-08T10:07:40;4.13;;;0.60;;
54261;SDS011;40174;52.364;6.452;2023-10-08T10:12:59;4.45;;;0.80;;
54261;SDS011;40174;52.364;6.452;2023-10-08T10:15:26;7.03;;;0.73;;
54261;SDS011;40174;52.364;6.452;2023-10-08T10:17:58;1.63;;;0.38;;
54261;SDS011;40174;52.364;6.452;2023-10-08T10:20:26;4.90;;;0.60;;
54261;SDS011;40174;52.364;6.452;2023-10-08T10:22:53;5.47;;;0.80;;
54261;SDS011;40174;52.364;6.452;2023-10-08T10:25:33;2.47;;;0.60;;
54261;SDS011;40174;52.364;6.452;2023-10-08T10:28:21;2.75;;;0.55;;
54261;SDS011;40174;52.364;6.452;2023-10-08T10:33:14;2.00;;;0.60;;
54261;SDS011;40174;52.364;6.452;2023-10-08T10:35:42;1.77;;;0.45;;
54261;SDS011;40174;52.364;6.452;2023-10-08T10:38:18;0.68;;;0.32;;
54261;SDS011;40174;52.364;6.452;2023-10-08T10:40:48;4.93;;;0.63;;
54261;SDS011;40174;52.364;6.452;2023-10-08T10:43:23;5.25;;;0.70;;
54261;SDS011;40174;52.364;6.452;2023-10-08T10:45:58;5.18;;;0.70;;
54261;SDS011;40174;52.364;6.452;2023-10-08T10:48:31;2.42;;;0.70;;
54261;SDS011;40174;52.364;6.452;2023-10-08T10:51:01;1.75;;;0.60;;
54261;SDS011;40174;52.364;6.452;2023-10-08T10:53:42;2.47;;;0.50;;
54261;SDS011;40174;52.364;6.452;2023-10-08T10:56:11;2.05;;;0.65;;
54261;SDS011;40174;52.364;6.452;2023-10-08T10:58:45;2.55;;;0.40;;
54261;SDS011;40174;52.364;6.452;2023-10-08T11:01:18;1.50;;;0.43;;
54261;SDS011;40174;52.364;6.452;2023-10-08T11:03:49;3.78;;;0.50;;
54261;SDS011;40174;52.364;6.452;2023-10-08T11:06:19;1.88;;;0.50;;
54261;SDS011;40174;52.364;6.452;2023-10-08T11:08:49;3.17;;;0.77;;
54261;SDS011;40174;52.364;6.452;2023-10-08T11:11:17;1.50;;;0.35;;
54261;SDS011;40174;52.364;6.452;2023-10-08T11:13:45;3.22;;;0.52;;
54261;SDS011;40174;52.364;6.452;2023-10-08T11:16:17;4.97;;;1.08;;
54261;SDS011;40174;52.364;6.452;2023-10-08T11:18:47;1.75;;;0.40;;
54261;SDS011;40174;52.364;6.452;2023-10-08T11:21:15;3.30;;;0.50;;
54261;SDS011;40174;52.364;6.452;2023-10-08T11:23:49;2.95;;;0.57;;
54261;SDS011;40174;52.364;6.452;2023-10-08T11:26:22;3.08;;;0.70;;
54261;SDS011;40174;52.364;6.452;2023-10-08T11:28:57;4.65;;;0.60;;
54261;SDS011;40174;52.364;6.452;2023-10-08T11:31:26;5.60;;;0.50;;
54261;SDS011;40174;52.364;6.452;2023-10-08T11:33:58;2.67;;;0.43;;
54261;SDS011;40174;52.364;6.452;2023-10-08T11:36:27;2.15;;;0.40;;
54261;SDS011;40174;52.364;6.452;2023-10-08T11:38:56;5.50;;;0.93;;
54261;SDS011;40174;52.364;6.452;2023-10-08T11:41:33;4.38;;;0.43;;
54261;SDS011;40174;52.364;6.452;2023-10-08T11:44:15;0.20;;;0.20;;
54261;SDS011;40174;52.364;6.452;2023-10-08T11:46:45;0.88;;;0.28;;
54261;SDS011;40174;52.364;6.452;2023-10-08T11:49:16;4.60;;;0.60;;
54261;SDS011;40174;52.364;6.452;2023-10-08T11:51:44;4.82;;;0.40;;
54261;SDS011;40174;52.364;6.452;2023-10-08T11:54:13;0.65;;;0.35;;
54261;SDS011;40174;52.364;6.452;2023-10-08T11:56:40;2.58;;;0.45;;
54261;SDS011;40174;52.364;6.452;2023-10-08T11:59:07;2.00;;;0.50;;
54261;SDS011;40174;52.364;6.452;2023-10-08T12:01:34;3.55;;;0.70;;
54261;SDS011;40174;52.364;6.452;2023-10-08T12:04:03;2.10;;;0.40;;
54261;SDS011;40174;52.364;6.452;2023-10-08T12:06:30;1.85;;;0.30;;
54261;SDS011;40174;52.364;6.452;2023-10-08T12:08:58;4.97;;;0.50;;
54261;SDS011;40174;52.364;6.452;2023-10-08T12:11:26;0.88;;;0.38;;
54261;SDS011;40174;52.364;6.452;2023-10-08T12:13:56;2.58;;;0.40;;
54261;SDS011;40174;52.364;6.452;2023-10-08T12:16:25;4.85;;;0.40;;
54261;SDS011;40174;52.364;6.452;2023-10-08T12:18:55;2.63;;;0.55;;
54261;SDS011;40174;52.364;6.452;2023-10-08T12:21:24;1.65;;;0.40;;
54261;SDS011;40174;52.364;6.452;2023-10-08T12:23:51;4.93;;;0.70;;
54261;SDS011;40174;52.364;6.452;2023-10-08T12:26:20;4.22;;;0.55;;
54261;SDS011;40174;52.364;6.452;2023-10-08T12:28:48;2.13;;;0.30;;
54261;SDS011;40174;52.364;6.452;2023-10-08T12:31:15;3.13;;;0.47;;
54261;SDS011;40174;52.364;6.452;2023-10-08T12:33:42;2.55;;;0.60;;
54261;SDS011;40174;52.364;6.452;2023-10-08T12:36:10;3.20;;;0.50;;
54261;SDS011;40174;52.364;6.452;2023-10-08T12:38:36;2.25;;;0.50;;
54261;SDS011;40174;52.364;6.452;2023-10-08T12:41:03;4.47;;;0.65;;
54261;SDS011;40174;52.364;6.452;2023-10-08T12:43:37;2.00;;;0.60;;
54261;SDS011;40174;52.364;6.452;2023-10-08T12:46:06;3.75;;;0.60;;
54261;SDS011;40174;52.364;6.452;2023-10-08T12:48:36;1.35;;;0.93;;
54261;SDS011;40174;52.364;6.452;2023-10-08T12:51:03;3.10;;;0.70;;
54261;SDS011;40174;52.364;6.452;2023-10-08T12:53:32;2.30;;;0.65;;
54261;SDS011;40174;52.364;6.452;2023-10-08T12:56:02;2.03;;;0.70;;
54261;SDS011;40174;52.364;6.452;2023-10-08T12:58:32;3.05;;;0.65;;
54261;SDS011;40174;52.364;6.452;2023-10-08T13:01:05;2.05;;;0.63;;
54261;SDS011;40174;52.364;6.452;2023-10-08T13:03:34;5.28;;;0.90;;
54261;SDS011;40174;52.364;6.452;2023-10-08T13:06:06;3.67;;;1.00;;
54261;SDS011;40174;52.364;6.452;2023-10-08T13:08:36;2.60;;;0.88;;
54261;SDS011;40174;52.364;6.452;2023-10-08T13:11:03;5.07;;;0.60;;
54261;SDS011;40174;52.364;6.452;2023-10-08T13:13:30;4.55;;;0.52;;
54261;SDS011;40174;52.364;6.452;2023-10-08T13:15:57;5.22;;;0.63;;
54261;SDS011;40174;52.364;6.452;2023-10-08T13:18:29;6.30;;;0.73;;
54261;SDS011;40174;52.364;6.452;2023-10-08T13:20:58;5.72;;;0.95;;
54261;SDS011;40174;52.364;6.452;2023-10-08T13:23:26;3.10;;;0.70;;
54261;SDS011;40174;52.364;6.452;2023-10-08T13:25:53;5.45;;;0.82;;
54261;SDS011;40174;52.364;6.452;2023-10-08T13:28:20;3.03;;;0.90;;
54261;SDS011;40174;52.364;6.452;2023-10-08T13:30:48;3.95;;;0.75;;
54261;SDS011;40174;52.364;6.452;2023-10-08T13:33:17;1.13;;;0.47;;
54261;SDS011;40174;52.364;6.452;2023-10-08T13:35:46;2.78;;;0.77;;
54261;SDS011;40174;52.364;6.452;2023-10-08T13:38:15;2.00;;;0.75;;
54261;SDS011;40174;52.364;6.452;2023-10-08T13:40:45;3.95;;;0.60;;
54261;SDS011;40174;52.364;6.452;2023-10-08T13:43:27;4.53;;;0.90;;
54261;SDS011;40174;52.364;6.452;2023-10-08T13:45:59;2.25;;;0.68;;
54261;SDS011;40174;52.364;6.452;2023-10-08T13:48:29;2.83;;;0.90;;
54261;SDS011;40174;52.364;6.452;2023-10-08T13:51:00;2.75;;;1.00;;
54261;SDS011;40174;52.364;6.452;2023-10-08T13:53:29;2.83;;;0.82;;
54261;SDS011;40174;52.364;6.452;2023-10-08T13:55:58;2.83;;;0.70;;
54261;SDS011;40174;52.364;6.452;2023-10-08T13:58:27;1.70;;;0.60;;
54261;SDS011;40174;52.364;6.452;2023-10-08T14:00:55;2.50;;;0.73;;
54261;SDS011;40174;52.364;6.452;2023-10-08T14:03:22;2.92;;;0.80;;
54261;SDS011;40174;52.364;6.452;2023-10-08T14:05:49;4.72;;;0.85;;
54261;SDS011;40174;52.364;6.452;2023-10-08T14:08:18;2.00;;;0.70;;
54261;SDS011;40174;52.364;6.452;2023-10-08T14:10:45;3.30;;;0.93;;
54261;SDS011;40174;52.364;6.452;2023-10-08T14:13:14;2.72;;;0.68;;
54261;SDS011;40174;52.364;6.452;2023-10-08T14:15:45;3.67;;;0.88;;
54261;SDS011;40174;52.364;6.452;2023-10-08T14:18:15;4.80;;;0.68;;
54261;SDS011;40174;52.364;6.452;2023-10-08T14:20:43;1.33;;;0.52;;
54261;SDS011;40174;52.364;6.452;2023-10-08T14:23:12;6.43;;;0.90;;
54261;SDS011;40174;52.364;6.452;2023-10-08T14:25:43;1.10;;;0.52;;
54261;SDS011;40174;52.364;6.452;2023-10-08T14:28:11;2.85;;;0.80;;
54261;SDS011;40174;52.364;6.452;2023-10-08T14:30:47;5.00;;;0.80;;
54261;SDS011;40174;52.364;6.452;2023-10-08T14:33:19;2.72;;;0.80;;
54261;SDS011;40174;52.364;6.452;2023-10-08T14:35:52;2.35;;;0.80;;
54261;SDS011;40174;52.364;6.452;2023-10-08T14:38:36;1.80;;;0.70;;
54261;SDS011;40174;52.364;6.452;2023-10-08T14:41:22;3.10;;;0.93;;
54261;SDS011;40174;52.364;6.452;2023-10-08T14:44:07;0.65;;;0.50;;
54261;SDS011;40174;52.364;6.452;2023-10-08T14:46:33;3.55;;;0.63;;
54261;SDS011;40174;52.364;6.452;2023-10-08T14:49:03;0.75;;;0.50;;
54261;SDS011;40174;52.364;6.452;2023-10-08T14:51:36;2.35;;;0.85;;
54261;SDS011;40174;52.364;6.452;2023-10-08T14:54:06;1.33;;;0.70;;
54261;SDS011;40174;52.364;6.452;2023-10-08T14:56:35;0.88;;;0.55;;
54261;SDS011;40174;52.364;6.452;2023-10-08T14:59:02;2.75;;;0.60;;
54261;SDS011;40174;52.364;6.452;2023-10-08T15:01:29;2.72;;;0.60;;
54261;SDS011;40174;52.364;6.452;2023-10-08T15:03:59;4.32;;;0.70;;
54261;SDS011;40174;52.364;6.452;2023-10-08T15:06:29;0.82;;;0.63;;
54261;SDS011;40174;52.364;6.452;2023-10-08T15:08:57;3.13;;;0.70;;
54261;SDS011;40174;52.364;6.452;2023-10-08T15:11:23;3.20;;;0.50;;
54261;SDS011;40174;52.364;6.452;2023-10-08T15:13:53;1.23;;;0.55;;
54261;SDS011;40174;52.364;6.452;2023-10-08T15:16:20;4.25;;;0.88;;
54261;SDS011;40174;52.364;6.452;2023-10-08T15:18:48;5.00;;;0.65;;
54261;SDS011;40174;52.364;6.452;2023-10-08T15:21:16;3.35;;;0.98;;